sensor_id;sensor_type;location;lat;lon;timestamp;temperature;humidity
68257;DHT22;55069;51.568;4.656;2023-04-25T00:00:16;6.11;86.35
68257;DHT22;55069;51.568;4.656;2023-04-25T00:02:42;6.09;86.17
68257;DHT22;55069;51.568;4.656;2023-04-25T00:05:08;6.03;86.24
68257;DHT22;55069;51.568;4.656;2023-04-25T00:07:34;6.01;86.37
68257;DHT22;55069;51.568;4.656;2023-04-25T00:10:00;5.88;86.46
68257;DHT22;55069;51.568;4.656;2023-04-25T00:12:25;5.85;86.77
68257;DHT22;55069;51.568;4.656;2023-04-25T00:14:54;5.82;87.07
68257;DHT22;55069;51.568;4.656;2023-04-25T00:17:23;5.79;87.21
68257;DHT22;55069;51.568;4.656;2023-04-25T00:19:50;5.75;87.64
68257;DHT22;55069;51.568;4.656;2023-04-25T00:22:16;5.73;87.63
68257;DHT22;55069;51.568;4.656;2023-04-25T00:24:42;5.65;87.86
68257;DHT22;55069;51.568;4.656;2023-04-25T00:27:08;5.64;87.87
68257;DHT22;55069;51.568;4.656;2023-04-25T00:29:34;5.61;88.12
68257;DHT22;55069;51.568;4.656;2023-04-25T00:31:59;5.58;88.33
68257;DHT22;55069;51.568;4.656;2023-04-25T00:34:25;5.61;88.74
68257;DHT22;55069;51.568;4.656;2023-04-25T00:36:51;5.57;88.79
68257;DHT22;55069;51.568;4.656;2023-04-25T00:39:17;5.53;88.90
68257;DHT22;55069;51.568;4.656;2023-04-25T00:41:42;5.50;88.99
68257;DHT22;55069;51.568;4.656;2023-04-25T00:44:08;5.53;89.13
68257;DHT22;55069;51.568;4.656;2023-04-25T00:46:36;5.53;89.18
68257;DHT22;55069;51.568;4.656;2023-04-25T00:49:03;5.58;89.17
68257;DHT22;55069;51.568;4.656;2023-04-25T00:51:30;5.63;89.07
68257;DHT22;55069;51.568;4.656;2023-04-25T00:53:57;5.67;88.96
68257;DHT22;55069;51.568;4.656;2023-04-25T00:56:22;5.73;89.00
68257;DHT22;55069;51.568;4.656;2023-04-25T00:58:49;5.81;88.94
68257;DHT22;55069;51.568;4.656;2023-04-25T01:01:15;5.87;88.74
68257;DHT22;55069;51.568;4.656;2023-04-25T01:03:42;5.95;88.55
68257;DHT22;55069;51.568;4.656;2023-04-25T01:06:10;5.98;88.27
68257;DHT22;55069;51.568;4.656;2023-04-25T01:08:37;6.06;88.10
68257;DHT22;55069;51.568;4.656;2023-04-25T01:11:03;6.06;88.12
68257;DHT22;55069;51.568;4.656;2023-04-25T01:13:28;6.03;87.93
68257;DHT22;55069;51.568;4.656;2023-04-25T01:15:54;6.03;87.88
68257;DHT22;55069;51.568;4.656;2023-04-25T01:18:20;6.02;88.00
68257;DHT22;55069;51.568;4.656;2023-04-25T01:20:46;5.99;88.00
68257;DHT22;55069;51.568;4.656;2023-04-25T01:23:13;5.97;87.86
68257;DHT22;55069;51.568;4.656;2023-04-25T01:25:39;5.91;88.05
68257;DHT22;55069;51.568;4.656;2023-04-25T01:28:06;5.87;88.01
68257;DHT22;55069;51.568;4.656;2023-04-25T01:30:31;5.78;88.31
68257;DHT22;55069;51.568;4.656;2023-04-25T01:32:58;5.84;88.29
68257;DHT22;55069;51.568;4.656;2023-04-25T01:35:24;5.88;88.15
68257;DHT22;55069;51.568;4.656;2023-04-25T01:37:53;5.87;88.06
68257;DHT22;55069;51.568;4.656;2023-04-25T01:40:20;5.90;87.84
68257;DHT22;55069;51.568;4.656;2023-04-25T01:42:46;5.95;87.43
68257;DHT22;55069;51.568;4.656;2023-04-25T01:45:12;5.92;87.30
68257;DHT22;55069;51.568;4.656;2023-04-25T01:47:39;5.95;87.29
68257;DHT22;55069;51.568;4.656;2023-04-25T01:50:09;6.03;87.21
68257;DHT22;55069;51.568;4.656;2023-04-25T01:52:36;5.99;87.34
68257;DHT22;55069;51.568;4.656;2023-04-25T01:55:04;5.95;87.63
68257;DHT22;55069;51.568;4.656;2023-04-25T01:57:32;5.98;87.63
68257;DHT22;55069;51.568;4.656;2023-04-25T02:00:02;5.98;87.52
68257;DHT22;55069;51.568;4.656;2023-04-25T02:02:40;5.95;87.74
68257;DHT22;55069;51.568;4.656;2023-04-25T02:05:16;5.91;87.91
68257;DHT22;55069;51.568;4.656;2023-04-25T02:07:43;5.91;87.62
68257;DHT22;55069;51.568;4.656;2023-04-25T02:10:09;5.91;87.51
68257;DHT22;55069;51.568;4.656;2023-04-25T02:12:40;5.91;87.80
68257;DHT22;55069;51.568;4.656;2023-04-25T02:15:24;5.88;87.57
68257;DHT22;55069;51.568;4.656;2023-04-25T02:17:54;5.91;86.85
68257;DHT22;55069;51.568;4.656;2023-04-25T02:20:21;5.95;85.95
68257;DHT22;55069;51.568;4.656;2023-04-25T02:22:47;6.03;85.31
68257;DHT22;55069;51.568;4.656;2023-04-25T02:25:12;6.05;85.01
68257;DHT22;55069;51.568;4.656;2023-04-25T02:27:38;6.02;85.59
68257;DHT22;55069;51.568;4.656;2023-04-25T02:30:05;6.05;85.70
68257;DHT22;55069;51.568;4.656;2023-04-25T02:32:33;6.02;85.79
68257;DHT22;55069;51.568;4.656;2023-04-25T02:35:00;6.02;85.70
68257;DHT22;55069;51.568;4.656;2023-04-25T02:37:30;6.03;85.49
68257;DHT22;55069;51.568;4.656;2023-04-25T02:39:56;6.06;85.42
68257;DHT22;55069;51.568;4.656;2023-04-25T02:42:22;6.01;85.34
68257;DHT22;55069;51.568;4.656;2023-04-25T02:44:49;6.02;84.92
68257;DHT22;55069;51.568;4.656;2023-04-25T02:47:14;6.02;85.10
68257;DHT22;55069;51.568;4.656;2023-04-25T02:49:42;5.99;85.10
68257;DHT22;55069;51.568;4.656;2023-04-25T02:52:08;6.01;84.99
68257;DHT22;55069;51.568;4.656;2023-04-25T02:54:34;6.03;85.15
68257;DHT22;55069;51.568;4.656;2023-04-25T02:57:01;6.03;84.82
68257;DHT22;55069;51.568;4.656;2023-04-25T02:59:33;6.03;84.33
68257;DHT22;55069;51.568;4.656;2023-04-25T03:01:59;6.08;84.49
68257;DHT22;55069;51.568;4.656;2023-04-25T03:04:24;6.08;84.07
68257;DHT22;55069;51.568;4.656;2023-04-25T03:06:51;6.11;84.40
68257;DHT22;55069;51.568;4.656;2023-04-25T03:09:19;6.20;83.16
68257;DHT22;55069;51.568;4.656;2023-04-25T03:11:46;6.22;81.72
68257;DHT22;55069;51.568;4.656;2023-04-25T03:14:12;6.20;80.92
68257;DHT22;55069;51.568;4.656;2023-04-25T03:16:40;6.28;81.07
68257;DHT22;55069;51.568;4.656;2023-04-25T03:19:06;6.26;81.68
68257;DHT22;55069;51.568;4.656;2023-04-25T03:21:33;6.23;81.56
68257;DHT22;55069;51.568;4.656;2023-04-25T03:24:00;6.20;81.37
68257;DHT22;55069;51.568;4.656;2023-04-25T03:26:25;6.18;81.96
68257;DHT22;55069;51.568;4.656;2023-04-25T03:28:51;6.15;80.94
68257;DHT22;55069;51.568;4.656;2023-04-25T03:31:17;6.15;81.46
68257;DHT22;55069;51.568;4.656;2023-04-25T03:33:42;6.15;81.43
68257;DHT22;55069;51.568;4.656;2023-04-25T03:36:08;6.13;80.71
68257;DHT22;55069;51.568;4.656;2023-04-25T03:38:35;6.15;81.40
68257;DHT22;55069;51.568;4.656;2023-04-25T03:41:01;6.18;81.35
68257;DHT22;55069;51.568;4.656;2023-04-25T03:43:40;6.18;81.77
68257;DHT22;55069;51.568;4.656;2023-04-25T03:46:10;6.12;81.95
68257;DHT22;55069;51.568;4.656;2023-04-25T03:48:36;6.18;82.55
68257;DHT22;55069;51.568;4.656;2023-04-25T03:51:02;6.18;82.08
68257;DHT22;55069;51.568;4.656;2023-04-25T03:53:30;6.19;81.33
68257;DHT22;55069;51.568;4.656;2023-04-25T03:56:24;6.22;81.87
68257;DHT22;55069;51.568;4.656;2023-04-25T03:58:58;6.26;81.04
68257;DHT22;55069;51.568;4.656;2023-04-25T04:01:25;6.28;81.49
68257;DHT22;55069;51.568;4.656;2023-04-25T04:03:51;6.29;81.53
68257;DHT22;55069;51.568;4.656;2023-04-25T04:06:17;6.32;80.76
68257;DHT22;55069;51.568;4.656;2023-04-25T04:08:47;6.25;80.45
68257;DHT22;55069;51.568;4.656;2023-04-25T04:11:13;6.19;80.91
68257;DHT22;55069;51.568;4.656;2023-04-25T04:13:38;6.12;81.32
68257;DHT22;55069;51.568;4.656;2023-04-25T04:16:05;6.06;81.40
68257;DHT22;55069;51.568;4.656;2023-04-25T04:18:31;5.99;82.34
68257;DHT22;55069;51.568;4.656;2023-04-25T04:20:59;5.91;82.60
68257;DHT22;55069;51.568;4.656;2023-04-25T04:23:27;5.90;83.06
68257;DHT22;55069;51.568;4.656;2023-04-25T04:25:54;5.87;83.12
68257;DHT22;55069;51.568;4.656;2023-04-25T04:28:23;5.81;83.38
68257;DHT22;55069;51.568;4.656;2023-04-25T04:31:06;5.75;83.55
68257;DHT22;55069;51.568;4.656;2023-04-25T04:33:33;5.75;84.35
68257;DHT22;55069;51.568;4.656;2023-04-25T04:36:01;5.77;84.35
68257;DHT22;55069;51.568;4.656;2023-04-25T04:38:29;5.75;83.79
68257;DHT22;55069;51.568;4.656;2023-04-25T04:40:58;5.77;84.20
68257;DHT22;55069;51.568;4.656;2023-04-25T04:43:31;5.75;83.88
68257;DHT22;55069;51.568;4.656;2023-04-25T04:46:25;5.82;83.63
68257;DHT22;55069;51.568;4.656;2023-04-25T04:49:17;5.85;84.38
68257;DHT22;55069;51.568;4.656;2023-04-25T04:52:01;5.85;83.86
68257;DHT22;55069;51.568;4.656;2023-04-25T04:54:38;5.84;83.43
68257;DHT22;55069;51.568;4.656;2023-04-25T04:57:23;5.87;82.79
68257;DHT22;55069;51.568;4.656;2023-04-25T04:59:56;5.91;83.60
68257;DHT22;55069;51.568;4.656;2023-04-25T05:02:42;5.97;83.49
68257;DHT22;55069;51.568;4.656;2023-04-25T05:05:26;5.99;84.07
68257;DHT22;55069;51.568;4.656;2023-04-25T05:08:12;6.05;84.27
68257;DHT22;55069;51.568;4.656;2023-04-25T05:10:50;6.13;84.39
68257;DHT22;55069;51.568;4.656;2023-04-25T05:13:32;6.22;84.45
68257;DHT22;55069;51.568;4.656;2023-04-25T05:16:15;6.28;83.10
68257;DHT22;55069;51.568;4.656;2023-04-25T05:18:55;6.29;83.28
68257;DHT22;55069;51.568;4.656;2023-04-25T05:21:47;6.36;82.55
68257;DHT22;55069;51.568;4.656;2023-04-25T05:24:48;6.29;79.63
68257;DHT22;55069;51.568;4.656;2023-04-25T05:27:29;6.06;77.55
68257;DHT22;55069;51.568;4.656;2023-04-25T05:30:15;5.99;77.81
68257;DHT22;55069;51.568;4.656;2023-04-25T05:33:01;5.92;77.30
68257;DHT22;55069;51.568;4.656;2023-04-25T05:35:27;5.91;76.95
68257;DHT22;55069;51.568;4.656;2023-04-25T05:37:54;5.87;76.87
68257;DHT22;55069;51.568;4.656;2023-04-25T05:40:30;5.91;77.24
68257;DHT22;55069;51.568;4.656;2023-04-25T05:43:05;5.91;78.74
68257;DHT22;55069;51.568;4.656;2023-04-25T05:45:53;5.87;77.71
68257;DHT22;55069;51.568;4.656;2023-04-25T05:48:30;5.79;77.68
68257;DHT22;55069;51.568;4.656;2023-04-25T05:51:15;5.84;79.18
68257;DHT22;55069;51.568;4.656;2023-04-25T05:54:04;5.85;79.86
68257;DHT22;55069;51.568;4.656;2023-04-25T05:56:32;5.81;80.81
68257;DHT22;55069;51.568;4.656;2023-04-25T05:58:58;5.79;81.48
68257;DHT22;55069;51.568;4.656;2023-04-25T06:01:23;5.77;81.65
68257;DHT22;55069;51.568;4.656;2023-04-25T06:03:49;5.77;82.04
68257;DHT22;55069;51.568;4.656;2023-04-25T06:06:17;5.74;82.08
68257;DHT22;55069;51.568;4.656;2023-04-25T06:08:42;5.78;82.14
68257;DHT22;55069;51.568;4.656;2023-04-25T06:11:10;5.91;81.17
68257;DHT22;55069;51.568;4.656;2023-04-25T06:13:36;6.05;79.15
68257;DHT22;55069;51.568;4.656;2023-04-25T06:16:03;6.12;77.24
68257;DHT22;55069;51.568;4.656;2023-04-25T06:18:28;6.19;76.73
68257;DHT22;55069;51.568;4.656;2023-04-25T06:20:54;6.23;75.76
68257;DHT22;55069;51.568;4.656;2023-04-25T06:23:22;6.29;75.77
68257;DHT22;55069;51.568;4.656;2023-04-25T06:25:51;6.40;75.67
68257;DHT22;55069;51.568;4.656;2023-04-25T06:28:17;6.44;75.77
68257;DHT22;55069;51.568;4.656;2023-04-25T06:30:43;6.53;74.60
68257;DHT22;55069;51.568;4.656;2023-04-25T06:33:13;6.68;74.13
68257;DHT22;55069;51.568;4.656;2023-04-25T06:35:39;6.81;73.60
68257;DHT22;55069;51.568;4.656;2023-04-25T06:38:08;6.89;72.52
68257;DHT22;55069;51.568;4.656;2023-04-25T06:40:37;7.04;71.98
68257;DHT22;55069;51.568;4.656;2023-04-25T06:43:02;7.18;72.00
68257;DHT22;55069;51.568;4.656;2023-04-25T06:45:47;7.09;72.13
68257;DHT22;55069;51.568;4.656;2023-04-25T06:48:12;7.09;73.13
68257;DHT22;55069;51.568;4.656;2023-04-25T06:50:38;7.22;73.70
68257;DHT22;55069;51.568;4.656;2023-04-25T06:53:04;7.42;73.05
68257;DHT22;55069;51.568;4.656;2023-04-25T06:55:30;7.67;72.50
68257;DHT22;55069;51.568;4.656;2023-04-25T06:58:16;7.94;73.26
68257;DHT22;55069;51.568;4.656;2023-04-25T07:01:00;8.32;72.56
68257;DHT22;55069;51.568;4.656;2023-04-25T07:03:26;8.52;71.43
68257;DHT22;55069;51.568;4.656;2023-04-25T07:05:57;8.73;71.96
68257;DHT22;55069;51.568;4.656;2023-04-25T07:08:24;8.45;70.61
68257;DHT22;55069;51.568;4.656;2023-04-25T07:10:50;8.52;72.21
68257;DHT22;55069;51.568;4.656;2023-04-25T07:13:16;8.54;71.48
68257;DHT22;55069;51.568;4.656;2023-04-25T07:15:41;8.79;71.34
68257;DHT22;55069;51.568;4.656;2023-04-25T07:18:08;8.63;68.48
68257;DHT22;55069;51.568;4.656;2023-04-25T07:20:34;8.84;69.48
68257;DHT22;55069;51.568;4.656;2023-04-25T07:23:00;9.14;69.58
68257;DHT22;55069;51.568;4.656;2023-04-25T07:25:26;9.18;67.68
68257;DHT22;55069;51.568;4.656;2023-04-25T07:27:52;9.12;69.30
68257;DHT22;55069;51.568;4.656;2023-04-25T07:30:20;8.92;70.75
68257;DHT22;55069;51.568;4.656;2023-04-25T07:32:45;8.20;69.46
68257;DHT22;55069;51.568;4.656;2023-04-25T07:35:11;7.83;71.74
68257;DHT22;55069;51.568;4.656;2023-04-25T07:37:37;7.66;70.90
68257;DHT22;55069;51.568;4.656;2023-04-25T07:40:13;7.53;71.89
68257;DHT22;55069;51.568;4.656;2023-04-25T07:42:44;7.47;72.32
68257;DHT22;55069;51.568;4.656;2023-04-25T07:45:11;7.39;71.95
68257;DHT22;55069;51.568;4.656;2023-04-25T07:47:38;7.40;72.77
68257;DHT22;55069;51.568;4.656;2023-04-25T07:50:06;7.39;72.38
68257;DHT22;55069;51.568;4.656;2023-04-25T07:52:32;7.71;72.21
68257;DHT22;55069;51.568;4.656;2023-04-25T07:55:11;8.09;71.97
68257;DHT22;55069;51.568;4.656;2023-04-25T07:57:49;8.36;71.15
68257;DHT22;55069;51.568;4.656;2023-04-25T08:00:15;8.62;69.03
68257;DHT22;55069;51.568;4.656;2023-04-25T08:02:45;8.70;68.15
68257;DHT22;55069;51.568;4.656;2023-04-25T08:05:15;8.53;66.99
68257;DHT22;55069;51.568;4.656;2023-04-25T08:07:44;8.59;66.05
68257;DHT22;55069;51.568;4.656;2023-04-25T08:10:13;8.88;66.96
68257;DHT22;55069;51.568;4.656;2023-04-25T08:12:40;9.14;66.57
68257;DHT22;55069;51.568;4.656;2023-04-25T08:15:07;9.24;66.89
68257;DHT22;55069;51.568;4.656;2023-04-25T08:17:36;9.49;65.82
68257;DHT22;55069;51.568;4.656;2023-04-25T08:20:02;9.60;65.49
68257;DHT22;55069;51.568;4.656;2023-04-25T08:22:31;9.69;64.89
68257;DHT22;55069;51.568;4.656;2023-04-25T08:25:13;9.90;64.63
68257;DHT22;55069;51.568;4.656;2023-04-25T08:27:39;9.69;62.80
68257;DHT22;55069;51.568;4.656;2023-04-25T08:30:06;9.76;64.49
68257;DHT22;55069;51.568;4.656;2023-04-25T08:32:34;9.55;62.14
68257;DHT22;55069;51.568;4.656;2023-04-25T08:35:23;9.25;63.95
68257;DHT22;55069;51.568;4.656;2023-04-25T08:37:49;9.28;65.49
68257;DHT22;55069;51.568;4.656;2023-04-25T08:40:16;9.38;64.48
68257;DHT22;55069;51.568;4.656;2023-04-25T08:42:53;9.45;63.61
68257;DHT22;55069;51.568;4.656;2023-04-25T08:45:19;9.60;61.19
68257;DHT22;55069;51.568;4.656;2023-04-25T08:47:45;9.50;61.44
68257;DHT22;55069;51.568;4.656;2023-04-25T08:50:11;9.59;60.51
68257;DHT22;55069;51.568;4.656;2023-04-25T08:52:43;9.66;60.70
68257;DHT22;55069;51.568;4.656;2023-04-25T08:55:11;9.96;60.40
68257;DHT22;55069;51.568;4.656;2023-04-25T08:57:40;10.25;62.56
68257;DHT22;55069;51.568;4.656;2023-04-25T09:00:10;10.62;61.49
68257;DHT22;55069;51.568;4.656;2023-04-25T09:02:39;10.42;60.04
68257;DHT22;55069;51.568;4.656;2023-04-25T09:05:07;10.93;59.74
68257;DHT22;55069;51.568;4.656;2023-04-25T09:07:36;10.86;60.77
68257;DHT22;55069;51.568;4.656;2023-04-25T09:10:02;10.84;59.56
68257;DHT22;55069;51.568;4.656;2023-04-25T09:12:31;10.52;61.12
68257;DHT22;55069;51.568;4.656;2023-04-25T09:15:03;10.40;59.74
68257;DHT22;55069;51.568;4.656;2023-04-25T09:18:02;10.18;60.36
68257;DHT22;55069;51.568;4.656;2023-04-25T09:20:43;9.91;61.47
68257;DHT22;55069;51.568;4.656;2023-04-25T09:23:09;9.90;63.59
68257;DHT22;55069;51.568;4.656;2023-04-25T09:25:37;9.90;63.05
68257;DHT22;55069;51.568;4.656;2023-04-25T09:28:06;9.86;60.95
68257;DHT22;55069;51.568;4.656;2023-04-25T09:30:34;9.86;61.03
68257;DHT22;55069;51.568;4.656;2023-04-25T09:33:06;10.04;60.86
68257;DHT22;55069;51.568;4.656;2023-04-25T09:35:40;10.31;61.67
68257;DHT22;55069;51.568;4.656;2023-04-25T09:38:13;10.42;60.61
68257;DHT22;55069;51.568;4.656;2023-04-25T09:40:51;10.51;59.79
68257;DHT22;55069;51.568;4.656;2023-04-25T09:43:50;10.45;59.56
68257;DHT22;55069;51.568;4.656;2023-04-25T09:46:16;10.73;59.06
68257;DHT22;55069;51.568;4.656;2023-04-25T09:48:51;10.44;59.03
68257;DHT22;55069;51.568;4.656;2023-04-25T09:51:26;10.35;60.22
68257;DHT22;55069;51.568;4.656;2023-04-25T09:53:53;10.05;60.37
68257;DHT22;55069;51.568;4.656;2023-04-25T09:56:35;10.13;59.51
68257;DHT22;55069;51.568;4.656;2023-04-25T09:59:03;9.91;59.67
68257;DHT22;55069;51.568;4.656;2023-04-25T10:01:33;9.94;61.75
68257;DHT22;55069;51.568;4.656;2023-04-25T10:04:10;9.97;61.81
68257;DHT22;55069;51.568;4.656;2023-04-25T10:07:07;9.98;63.23
68257;DHT22;55069;51.568;4.656;2023-04-25T10:09:37;10.17;63.54
68257;DHT22;55069;51.568;4.656;2023-04-25T10:12:03;10.38;60.81
68257;DHT22;55069;51.568;4.656;2023-04-25T10:14:32;10.15;59.61
68257;DHT22;55069;51.568;4.656;2023-04-25T10:16:59;10.35;59.78
68257;DHT22;55069;51.568;4.656;2023-04-25T10:19:25;10.44;59.76
68257;DHT22;55069;51.568;4.656;2023-04-25T10:21:56;10.65;57.82
68257;DHT22;55069;51.568;4.656;2023-04-25T10:24:24;10.72;58.91
68257;DHT22;55069;51.568;4.656;2023-04-25T10:26:54;10.84;57.44
68257;DHT22;55069;51.568;4.656;2023-04-25T10:29:23;10.96;57.91
68257;DHT22;55069;51.568;4.656;2023-04-25T10:31:49;11.11;56.73
68257;DHT22;55069;51.568;4.656;2023-04-25T10:34:16;11.00;57.98
68257;DHT22;55069;51.568;4.656;2023-04-25T10:36:42;10.99;58.05
68257;DHT22;55069;51.568;4.656;2023-04-25T10:39:08;11.32;59.33
68257;DHT22;55069;51.568;4.656;2023-04-25T10:41:57;11.26;59.13
68257;DHT22;55069;51.568;4.656;2023-04-25T10:44:26;11.35;58.51
68257;DHT22;55069;51.568;4.656;2023-04-25T10:46:55;11.54;57.78
68257;DHT22;55069;51.568;4.656;2023-04-25T10:49:33;11.06;59.61
68257;DHT22;55069;51.568;4.656;2023-04-25T10:52:27;10.97;60.14
68257;DHT22;55069;51.568;4.656;2023-04-25T10:54:56;11.13;56.84
68257;DHT22;55069;51.568;4.656;2023-04-25T10:57:43;11.28;57.90
68257;DHT22;55069;51.568;4.656;2023-04-25T11:00:15;11.20;58.75
68257;DHT22;55069;51.568;4.656;2023-04-25T11:02:59;11.21;58.95
68257;DHT22;55069;51.568;4.656;2023-04-25T11:05:33;11.61;57.40
68257;DHT22;55069;51.568;4.656;2023-04-25T11:07:59;11.50;58.30
68257;DHT22;55069;51.568;4.656;2023-04-25T11:10:30;10.93;56.69
68257;DHT22;55069;51.568;4.656;2023-04-25T11:12:57;11.41;57.65
68257;DHT22;55069;51.568;4.656;2023-04-25T11:15:23;11.57;56.44
68257;DHT22;55069;51.568;4.656;2023-04-25T11:17:53;11.59;55.46
68257;DHT22;55069;51.568;4.656;2023-04-25T11:20:20;11.76;56.14
68257;DHT22;55069;51.568;4.656;2023-04-25T11:22:46;11.51;58.04
68257;DHT22;55069;51.568;4.656;2023-04-25T11:25:14;11.52;57.56
68257;DHT22;55069;51.568;4.656;2023-04-25T11:27:52;10.68;58.85
68257;DHT22;55069;51.568;4.656;2023-04-25T11:30:20;10.80;59.66
68257;DHT22;55069;51.568;4.656;2023-04-25T11:32:46;10.73;59.52
68257;DHT22;55069;51.568;4.656;2023-04-25T11:35:12;10.77;57.39
68257;DHT22;55069;51.568;4.656;2023-04-25T11:37:39;10.62;56.49
68257;DHT22;55069;51.568;4.656;2023-04-25T11:40:06;10.58;55.10
68257;DHT22;55069;51.568;4.656;2023-04-25T11:42:32;10.88;56.96
68257;DHT22;55069;51.568;4.656;2023-04-25T11:45:01;11.01;54.37
68257;DHT22;55069;51.568;4.656;2023-04-25T11:47:30;11.04;56.65
68257;DHT22;55069;51.568;4.656;2023-04-25T11:50:01;11.23;57.16
68257;DHT22;55069;51.568;4.656;2023-04-25T11:52:41;11.69;56.48
68257;DHT22;55069;51.568;4.656;2023-04-25T11:55:17;12.36;55.54
68257;DHT22;55069;51.568;4.656;2023-04-25T11:57:45;12.45;53.67
68257;DHT22;55069;51.568;4.656;2023-04-25T12:00:18;11.57;54.03
68257;DHT22;55069;51.568;4.656;2023-04-25T12:02:53;11.62;57.01
68257;DHT22;55069;51.568;4.656;2023-04-25T12:05:19;11.89;54.63
68257;DHT22;55069;51.568;4.656;2023-04-25T12:07:46;12.13;55.99
68257;DHT22;55069;51.568;4.656;2023-04-25T12:10:13;12.65;54.40
68257;DHT22;55069;51.568;4.656;2023-04-25T12:12:43;12.82;54.05
68257;DHT22;55069;51.568;4.656;2023-04-25T12:15:17;12.22;52.09
68257;DHT22;55069;51.568;4.656;2023-04-25T12:17:46;12.00;53.30
68257;DHT22;55069;51.568;4.656;2023-04-25T12:20:16;11.68;51.54
68257;DHT22;55069;51.568;4.656;2023-04-25T12:22:44;11.64;53.10
68257;DHT22;55069;51.568;4.656;2023-04-25T12:25:11;11.07;55.72
68257;DHT22;55069;51.568;4.656;2023-04-25T12:27:38;11.34;56.01
68257;DHT22;55069;51.568;4.656;2023-04-25T12:30:07;11.14;57.27
68257;DHT22;55069;51.568;4.656;2023-04-25T12:32:34;11.30;55.79
68257;DHT22;55069;51.568;4.656;2023-04-25T12:34:59;11.34;56.24
68257;DHT22;55069;51.568;4.656;2023-04-25T12:37:25;12.09;56.84
68257;DHT22;55069;51.568;4.656;2023-04-25T12:39:51;11.96;50.43
68257;DHT22;55069;51.568;4.656;2023-04-25T12:42:17;12.91;51.92
68257;DHT22;55069;51.568;4.656;2023-04-25T12:44:43;12.75;48.29
68257;DHT22;55069;51.568;4.656;2023-04-25T12:47:09;11.78;53.09
68257;DHT22;55069;51.568;4.656;2023-04-25T12:49:34;11.65;52.79
68257;DHT22;55069;51.568;4.656;2023-04-25T12:52:00;12.03;54.20
68257;DHT22;55069;51.568;4.656;2023-04-25T12:54:26;12.06;53.22
68257;DHT22;55069;51.568;4.656;2023-04-25T12:56:52;12.78;52.57
68257;DHT22;55069;51.568;4.656;2023-04-25T12:59:18;12.81;51.39
68257;DHT22;55069;51.568;4.656;2023-04-25T13:01:45;13.02;53.53
68257;DHT22;55069;51.568;4.656;2023-04-25T13:04:11;13.16;50.64
68257;DHT22;55069;51.568;4.656;2023-04-25T13:06:36;13.60;50.30
68257;DHT22;55069;51.568;4.656;2023-04-25T13:09:02;14.01;52.24
68257;DHT22;55069;51.568;4.656;2023-04-25T13:11:28;13.46;52.33
68257;DHT22;55069;51.568;4.656;2023-04-25T13:13:55;12.87;50.02
68257;DHT22;55069;51.568;4.656;2023-04-25T13:16:24;12.69;53.30
68257;DHT22;55069;51.568;4.656;2023-04-25T13:18:49;12.44;50.62
68257;DHT22;55069;51.568;4.656;2023-04-25T13:21:15;12.78;54.96
68257;DHT22;55069;51.568;4.656;2023-04-25T13:23:41;12.72;52.98
68257;DHT22;55069;51.568;4.656;2023-04-25T13:26:08;12.95;50.58
68257;DHT22;55069;51.568;4.656;2023-04-25T13:28:34;12.71;50.57
68257;DHT22;55069;51.568;4.656;2023-04-25T13:30:59;12.57;52.96
68257;DHT22;55069;51.568;4.656;2023-04-25T13:33:25;12.38;49.85
68257;DHT22;55069;51.568;4.656;2023-04-25T13:35:51;12.47;53.60
68257;DHT22;55069;51.568;4.656;2023-04-25T13:38:23;12.50;48.91
68257;DHT22;55069;51.568;4.656;2023-04-25T13:40:49;12.41;51.41
68257;DHT22;55069;51.568;4.656;2023-04-25T13:43:21;12.77;49.56
68257;DHT22;55069;51.568;4.656;2023-04-25T13:45:48;13.05;50.61
68257;DHT22;55069;51.568;4.656;2023-04-25T13:48:17;12.58;48.62
68257;DHT22;55069;51.568;4.656;2023-04-25T13:50:42;13.26;47.08
68257;DHT22;55069;51.568;4.656;2023-04-25T13:53:08;13.42;50.51
68257;DHT22;55069;51.568;4.656;2023-04-25T13:55:34;13.22;50.90
68257;DHT22;55069;51.568;4.656;2023-04-25T13:58:02;12.88;53.91
68257;DHT22;55069;51.568;4.656;2023-04-25T14:00:34;12.60;52.90
68257;DHT22;55069;51.568;4.656;2023-04-25T14:02:59;12.47;59.43
68257;DHT22;55069;51.568;4.656;2023-04-25T14:05:25;12.02;54.99
68257;DHT22;55069;51.568;4.656;2023-04-25T14:07:51;11.86;55.91
68257;DHT22;55069;51.568;4.656;2023-04-25T14:10:19;11.62;54.38
68257;DHT22;55069;51.568;4.656;2023-04-25T14:12:45;11.71;57.42
68257;DHT22;55069;51.568;4.656;2023-04-25T14:15:11;11.71;56.57
68257;DHT22;55069;51.568;4.656;2023-04-25T14:17:36;12.24;56.21
68257;DHT22;55069;51.568;4.656;2023-04-25T14:20:03;12.05;54.21
68257;DHT22;55069;51.568;4.656;2023-04-25T14:22:31;11.86;54.49
68257;DHT22;55069;51.568;4.656;2023-04-25T14:24:56;12.14;52.70
68257;DHT22;55069;51.568;4.656;2023-04-25T14:27:23;12.45;54.18
68257;DHT22;55069;51.568;4.656;2023-04-25T14:29:50;12.54;52.14
68257;DHT22;55069;51.568;4.656;2023-04-25T14:32:15;12.29;51.82
68257;DHT22;55069;51.568;4.656;2023-04-25T14:34:41;12.92;54.30
68257;DHT22;55069;51.568;4.656;2023-04-25T14:37:07;13.09;52.98
68257;DHT22;55069;51.568;4.656;2023-04-25T14:39:32;13.18;50.23
68257;DHT22;55069;51.568;4.656;2023-04-25T14:41:58;12.50;52.69
68257;DHT22;55069;51.568;4.656;2023-04-25T14:44:24;12.44;52.05
68257;DHT22;55069;51.568;4.656;2023-04-25T14:46:50;12.38;52.84
68257;DHT22;55069;51.568;4.656;2023-04-25T14:49:17;12.40;54.53
68257;DHT22;55069;51.568;4.656;2023-04-25T14:51:43;12.32;52.87
68257;DHT22;55069;51.568;4.656;2023-04-25T14:54:08;12.85;55.01
68257;DHT22;55069;51.568;4.656;2023-04-25T14:56:34;12.78;51.73
68257;DHT22;55069;51.568;4.656;2023-04-25T14:59:00;12.69;49.83
68257;DHT22;55069;51.568;4.656;2023-04-25T15:01:26;12.19;48.81
68257;DHT22;55069;51.568;4.656;2023-04-25T15:03:51;12.36;52.31
68257;DHT22;55069;51.568;4.656;2023-04-25T15:06:17;12.78;50.45
68257;DHT22;55069;51.568;4.656;2023-04-25T15:08:43;13.02;50.59
68257;DHT22;55069;51.568;4.656;2023-04-25T15:11:09;12.93;49.61
68257;DHT22;55069;51.568;4.656;2023-04-25T15:13:36;12.12;48.49
68257;DHT22;55069;51.568;4.656;2023-04-25T15:16:02;12.24;50.55
68257;DHT22;55069;51.568;4.656;2023-04-25T15:18:28;12.47;51.68
68257;DHT22;55069;51.568;4.656;2023-04-25T15:20:54;12.48;50.48
68257;DHT22;55069;51.568;4.656;2023-04-25T15:23:20;12.64;51.16
68257;DHT22;55069;51.568;4.656;2023-04-25T15:25:47;11.92;51.27
68257;DHT22;55069;51.568;4.656;2023-04-25T15:28:13;11.99;55.50
68257;DHT22;55069;51.568;4.656;2023-04-25T15:30:43;11.87;54.65
68257;DHT22;55069;51.568;4.656;2023-04-25T15:33:10;12.34;55.85
68257;DHT22;55069;51.568;4.656;2023-04-25T15:35:36;11.76;55.03
68257;DHT22;55069;51.568;4.656;2023-04-25T15:38:02;11.37;56.13
68257;DHT22;55069;51.568;4.656;2023-04-25T15:40:30;11.59;58.84
68257;DHT22;55069;51.568;4.656;2023-04-25T15:42:56;11.99;60.28
68257;DHT22;55069;51.568;4.656;2023-04-25T15:45:24;12.72;54.76
68257;DHT22;55069;51.568;4.656;2023-04-25T15:47:51;13.16;50.79
68257;DHT22;55069;51.568;4.656;2023-04-25T15:50:18;13.37;51.00
68257;DHT22;55069;51.568;4.656;2023-04-25T15:52:44;12.75;49.52